To NAV CANADA Home Page Login to a new session Search on AWWS site Feedback and Comments Disclaimer Vers la page française équivalente Tips FAQ What's new on the site To the Forecasts and Observations / NOTAM section To "File a Flight Plan" website Publications and other links Update of the User's profile FIC Telephone Numbers My Weather Data Folder Route Weather Data Regional Weather Data Local Weather Data To the Forecasts and Observations / NOTAM section
Request Generated 12/04/2016 at 22:19:41 UTC . Weather information available at that time is displayed.

METAR/TAF

LOURDES-DE-BLANC-SABLON/QC    

METAR CYBX 042200Z 36008KT 15SM BKN030 M06/M11 A2978 RMK SC6 SLP089=
METAR CYBX 042100Z 36007KT 15SM BKN050 M06/M10 A2978 RMK SC5 SLP089=
METAR CYBX 042000Z 35006KT 15SM FEW020 SCT050 M05/M09 A2977 RMK
SC1SC3 SLP086=

TAF CYBX 041938Z 0420/0508 36012KT P6SM SCT050
RMK NXT FCST BY 050200Z=
Your time UTC time
Weather data provided by Environment Canada and NAV CANADA